Flight Track Log - Related Links

Times and Time Zones

All times are in EST time to prevent confusion due to time zone crossing. See the N55NG flight status page for this flight to view local times or setup timezone preferences in your user account.

Time Position Orientation Groundspeed Altitude Reporting Facility
EST Latitude Longitude Course Direction KTS MPH feet Rate Location/Type
Fri 07:06:24 PM 26.6864 -79.9700 80° East 200 230 7,500  Level Miami Center
Fri 07:07:24 PM 26.7300 -79.9875 340° North 107 123 10,300 2,250 Climbing Miami Center
Fri 07:08:24 PM 26.7594 -80.0672 292° West 195 224 12,000 1,100 Climbing Miami Center
Fri 07:09:24 PM 26.7972 -80.1567 295° West 304 350 12,500 1,000 Climbing Miami Center
Fri 07:10:00 PM 27.2181 -80.1894 336° Northwest  Level Estimated
Fri 07:10:24 PM 26.8344 -80.2578 292° West 345 397 14,000  Level Miami Center
Fri 07:11:24 PM 26.8908 -80.3481 305° West 350 403 14,000 800 Level Miami Center
Fri 07:12:24 PM 26.9819 -80.3858 340° North 360 414 15,600 1,750 Climbing Miami Center
Fri 07:13:24 PM 27.0747 -80.4236 340° North 360 414 17,500 1,750 Climbing Miami Center
Fri 07:14:24 PM 27.1758 -80.4733 336° Northwest 360 414 19,100 1,600 Climbing Miami Center
Fri 07:15:24 PM 27.2731 -80.5114 341° North 360 414 20,700 1,550 Climbing Miami Center
Fri 07:16:24 PM 27.3703 -80.5519 340° North 365 420 22,200 1,500 Climbing Miami Center
Fri 07:17:24 PM 27.4672 -80.5925 340° North 370 426 23,700 1,500 Climbing Miami Center
Fri 07:18:24 PM 27.5644 -80.6331 340° North 370 426 25,200 1,500 Climbing Miami Center
Fri 07:19:24 PM 27.6614 -80.6739 340° North 370 426 26,700 1,500 Climbing Miami Center
Fri 07:20:24 PM 27.7606 -80.7147 340° North 370 426 28,200 1,250 Climbing Miami Center
Fri 07:21:24 PM 27.8597 -80.7556 340° North 370 426 29,200 1,000 Climbing Miami Center
Fri 07:22:24 PM 27.9567 -80.7942 341° North 387 445 30,200 1,000 Climbing Miami Center
Fri 07:23:24 PM 28.0639 -80.8403 339° North 399 459 31,200 1,000 Climbing Miami Center
Fri 07:24:24 PM 28.1669 -80.8861 339° North 404 465 32,200 1,033 Climbing Miami Center
Fri 07:25:55 PM 28.3378 -80.9564 340° North 405 466 33,800 1,033 Climbing Jacksonville Center
Fri 07:26:55 PM 28.4492 -81.0061 339° North 413 475 34,800 1,008 Climbing Jacksonville Center
Fri 07:27:54 PM 28.5542 -81.0514 339° North 413 475 35,800 1,250 Climbing Jacksonville Center
Fri 07:28:55 PM 28.6550 -81.0969 338° Northwest 408 470 37,300 1,400 Climbing Jacksonville Center
Fri 07:29:54 PM 28.7578 -81.1331 343° North 391 450 38,600 958 Climbing Jacksonville Center
Fri 07:30:54 PM 28.8686 -81.1569 349° North 385 443 39,200 545 Climbing Jacksonville Center
Fri 07:31:55 PM 28.9775 -81.1836 348° North 390 449 39,700 496 Climbing Jacksonville Center
Fri 07:32:55 PM 29.0906 -81.2125 347° North 405 466 40,200 504 Climbing Jacksonville Center
Fri 07:33:54 PM 29.2036 -81.2369 349° North 410 472 40,700 403 Climbing Jacksonville Center
Fri 07:34:54 PM 29.3167 -81.2658 347° North 410 472 41,000 149 Climbing Jacksonville Center
Fri 07:35:55 PM 29.4339 -81.2903 350° North 410 472 41,000  Level Jacksonville Center
Fri 07:36:54 PM 29.5469 -81.3217 346° North 415 478 41,000  Level Jacksonville Center
Fri 07:37:55 PM 29.6683 -81.3508 348° North 421 484 41,000  Level Jacksonville Center
Fri 07:38:54 PM 29.7900 -81.3778 349° North 432 497 41,000  Level Jacksonville Center
Fri 07:39:54 PM 29.9092 -81.4069 348° North 432 497 41,000  Level Jacksonville Center
Fri 07:40:54 PM 30.0306 -81.4364 348° North 432 497 41,000  Level Jacksonville Center
Fri 07:41:55 PM 30.1519 -81.4633 349° North 432 497 41,000  Level Jacksonville Center
Fri 07:42:55 PM 30.2733 -81.4928 348° North 432 497 41,000  Level Jacksonville Center
Fri 07:43:55 PM 30.3969 -81.5175 350° North 432 497 41,000  Level Jacksonville Center
Fri 07:44:55 PM 30.5264 -81.5253 357° North 442 509 41,000  Level Jacksonville Center
Fri 07:45:54 PM 30.6414 -81.5406 353° North 461 531 41,000  Level Jacksonville Center
Fri 07:46:55 PM 30.7669 -81.5508 356° North 461 531 41,000  Level Jacksonville Center
Fri 07:47:55 PM 30.8922 -81.5636 355° North 456 525 41,000  Level Jacksonville Center
Fri 07:48:55 PM 31.0156 -81.5764 355° North 456 525 41,000  Level Jacksonville Center
Fri 07:49:54 PM 31.1389 -81.5892 355° North 446 513 41,000  Level Jacksonville Center
Fri 07:50:55 PM 31.2622 -81.6019 355° North 441 507 41,000  Level Jacksonville Center
Fri 07:51:55 PM 31.3939 -81.6125 356° North 441 507 41,000  Level Jacksonville Center
Fri 07:52:55 PM 31.5172 -81.6253 355° North 447 514 41,000  Level Jacksonville Center
Fri 07:53:55 PM 31.6300 -81.6383 354° North 447 514 41,000  Level Jacksonville Center
Fri 07:54:55 PM 31.7658 -81.6514 355° North 447 514 41,000  Level Jacksonville Center
Fri 07:55:54 PM 31.8892 -81.6617 356° North 440 506 41,000  Level Jacksonville Center
Fri 07:56:55 PM 32.0019 -81.6750 354° North 445 512 41,000  Level Jacksonville Center
Fri 07:57:54 PM 32.1378 -81.6856 356° North 445 512 41,000  Level Jacksonville Center
Fri 07:58:54 PM 32.2506 -81.6986 354° North 445 512 41,000  Level Jacksonville Center
Fri 07:59:54 PM 32.3886 -81.7092 356° North 445 512 41,000  Level Jacksonville Center
Fri 08:00:55 PM 32.5078 -81.7200 356° North 440 506 41,000  Level Jacksonville Center
Fri 08:01:55 PM 32.6183 -81.7308 355° North 440 506 41,000  Level Jacksonville Center
Fri 08:02:55 PM 32.7353 -81.7392 357° North 435 501 41,000  Level Jacksonville Center
Fri 08:03:55 PM 32.8544 -81.7525 355° North 430 495 41,000  Level Jacksonville Center
Fri 08:04:55 PM 32.9756 -81.7633 356° North 424 488 41,000  Level Jacksonville Center
Fri 08:05:55 PM 33.0928 -81.7744 355° North 424 488 41,000  Level Jacksonville Center
Fri 08:06:55 PM 33.2264 -81.7900 354° North 424 488 41,000  Level Jacksonville Center
Fri 08:07:54 PM 33.3453 -81.7986 357° North 429 494 41,000  Level Jacksonville Center
Fri 08:08:54 PM 33.4667 -81.8119 355° North 429 494 41,000 -328 Level Jacksonville Center
Fri 08:11:15 PM 33.7328 -81.8356 356° North 434 499 39,900 -627 Descending Atlanta Center
Fri 08:12:15 PM 33.8478 -81.8478 355° North 427 491 38,900 -1,000 Descending Atlanta Center
Fri 08:13:15 PM 33.9628 -81.8597 355° North 422 486 37,900 -1,100 Descending Atlanta Center
Fri 08:14:15 PM 34.0922 -81.8714 356° North 422 486 36,700 -1,100 Descending Atlanta Center
Fri 08:15:15 PM 34.2033 -81.8839 355° North 416 479 35,700 -1,000 Descending Atlanta Center
Fri 08:16:15 PM 34.3078 -81.8936 356° North 395 455 34,700 -1,000 Descending Atlanta Center
Fri 08:17:15 PM 34.4164 -81.9061 355° North 390 449 33,700 -1,000 Descending Atlanta Center
Fri 08:18:15 PM 34.5294 -81.9183 355° North 390 449 32,700 -1,300 Descending Atlanta Center
Fri 08:19:15 PM 34.6422 -81.9331 354° North 400 460 31,100 -1,750 Descending Atlanta Center
Fri 08:20:15 PM 34.7550 -81.9403 357° North 410 472 29,200 -1,800 Descending Atlanta Center
Fri 08:21:15 PM 34.8681 -81.9528 355° North 402 463 27,500 -1,350 Descending Atlanta Center
Fri 08:22:15 PM 34.9767 -81.9653 355° North 408 470 26,500 -1,000 Descending Atlanta Center
Fri 08:23:15 PM 35.0939 -81.9800 354° North 414 476 25,500 -1,050 Descending Atlanta Center
Fri 08:24:15 PM 35.2131 -81.9897 356° North 420 483 24,400 -750 Descending Atlanta Center
Fri 08:25:15 PM 35.3236 -82.0022 355° North 420 483 24,000 -200 Descending Atlanta Center
Fri 08:26:15 PM 35.4367 -82.0147 355° North 415 478 24,000 -250 Level Atlanta Center
Fri 08:27:15 PM 35.5472 -82.0250 356° North 403 464 23,500 -500 Descending Atlanta Center
Fri 08:28:15 PM 35.6603 -82.0375 355° North 403 464 23,000 -700 Descending Atlanta Center
Fri 08:29:15 PM 35.7814 -82.0497 355° North 403 464 22,100 -1,500 Descending Atlanta Center
Fri 08:30:15 PM 35.8858 -82.0600 355° North 397 457 20,000 -2,000 Descending Atlanta Center
Fri 08:31:15 PM 35.9925 -82.0678 357° North 387 445 18,100 -2,050 Descending Atlanta Center
Fri 08:32:15 PM 36.0906 -82.0808 354° North 376 433 15,900 -2,100 Descending Atlanta Center
Fri 08:33:15 PM 36.1825 -82.0889 356° North 345 397 13,900 -1,900 Descending Atlanta Center
Fri 08:34:15 PM 36.2578 -82.0997 353° North 320 368 12,100 -1,850 Descending Atlanta Center
Fri 08:35:15 PM 36.3433 -82.1081 356° North 303 349 10,200 -1,750 Descending Atlanta Center
Fri 08:36:15 PM 36.4144 -82.1167 354° North 280 322 8,600 -1,950 Descending Atlanta Center
Fri 08:37:15 PM 36.4833 -82.1228 356° North 251 289 6,300 -2,400 Descending Atlanta Center
Fri 08:38:15 PM 36.5522 -82.1289 356° North 246 283 3,800 -1,350 Descending Atlanta Center
Fri 08:39:15 PM 36.6086 -82.1381 353° North 222 255 3,600 -350 Descending Atlanta Center
Fri 08:40:15 PM 36.6439 -82.1139 29° Northeast 167 192 3,100 -500 Descending Atlanta Center
Fri 08:42:00 PM 36.6871 -82.0333 48° Northeast  Level Estimated
Fri 08:49:00 PM 36.6871 -82.0333 48° Northeast  Level Estimated

Login

Don't have an account? Register now (free) for customized features, flight alerts, and more!